createdAt,value
2022-10-22T00:00:01.048Z,4.27
2022-10-22T00:02:27.969Z,4.27
2022-10-22T00:04:56.991Z,4.30
2022-10-22T00:07:24.208Z,4.93
2022-10-22T00:09:50.908Z,4.67
2022-10-22T00:12:17.927Z,5.47
2022-10-22T00:14:44.724Z,4.03
2022-10-22T00:17:12.294Z,4.90
2022-10-22T00:19:40.053Z,4.30
2022-10-22T00:22:07.797Z,4.47
2022-10-22T00:24:35.777Z,3.87
2022-10-22T00:27:03.391Z,4.33
2022-10-22T00:29:30.401Z,4.50
2022-10-22T00:31:57.176Z,4.70
2022-10-22T00:34:24.620Z,4.20
2022-10-22T00:36:52.208Z,5.30
2022-10-22T00:39:21.464Z,4.77
2022-10-22T00:41:50.464Z,4.20
2022-10-22T00:44:54.476Z,4.00
2022-10-22T00:47:24.111Z,3.93
2022-10-22T00:49:53.730Z,3.90
2022-10-22T00:52:21.879Z,4.13
2022-10-22T00:54:50.024Z,5.93
2022-10-22T00:57:18.079Z,4.20
2022-10-22T00:59:44.923Z,4.70
2022-10-22T01:02:11.600Z,4.07
2022-10-22T01:04:38.419Z,3.80
2022-10-22T01:07:05.716Z,4.57
2022-10-22T01:09:37.297Z,4.73
2022-10-22T01:12:18.379Z,4.17
2022-10-22T01:15:03.055Z,4.57
2022-10-22T01:17:42.992Z,3.77
2022-10-22T01:20:39.291Z,4.40
2022-10-22T01:23:33.469Z,3.77
2022-10-22T01:26:26.814Z,3.87
2022-10-22T01:29:07.068Z,3.83
2022-10-22T01:31:39.753Z,3.60
2022-10-22T01:34:08.260Z,3.97
2022-10-22T01:36:37.541Z,4.40
2022-10-22T01:39:05.557Z,3.77
2022-10-22T01:41:32.629Z,3.93
2022-10-22T01:43:59.287Z,4.17
2022-10-22T01:46:28.404Z,4.30
2022-10-22T01:49:04.435Z,4.03
2022-10-22T01:51:58.452Z,4.73
2022-10-22T01:54:46.758Z,3.60
2022-10-22T01:57:19.529Z,4.00
2022-10-22T02:00:06.697Z,4.47
2022-10-22T02:02:55.277Z,3.93
2022-10-22T02:05:40.875Z,3.60
2022-10-22T02:08:20.466Z,3.70
2022-10-22T02:10:48.421Z,3.77
2022-10-22T02:13:39.735Z,3.50
2022-10-22T02:16:09.450Z,4.30
2022-10-22T02:18:39.524Z,3.53
2022-10-22T02:23:39.405Z,4.00
2022-10-22T02:26:25.339Z,3.90
2022-10-22T02:28:58.090Z,3.97
2022-10-22T02:31:29.744Z,4.23
2022-10-22T02:34:01.338Z,3.70
2022-10-22T02:36:28.620Z,4.30
2022-10-22T02:38:56.354Z,3.33
2022-10-22T02:41:23.437Z,3.93
2022-10-22T02:43:54.500Z,3.50
2022-10-22T02:46:22.139Z,3.23
2022-10-22T02:48:48.998Z,4.00
2022-10-22T02:51:15.781Z,3.67
2022-10-22T02:53:42.475Z,3.53
2022-10-22T02:56:09.803Z,3.50
2022-10-22T02:58:36.449Z,3.80
2022-10-22T03:01:03.310Z,3.23
2022-10-22T03:03:30.081Z,3.90
2022-10-22T03:05:56.738Z,3.47
2022-10-22T03:08:23.438Z,3.10
2022-10-22T03:10:50.132Z,3.93
2022-10-22T03:13:16.817Z,3.90
2022-10-22T03:15:43.487Z,3.73
2022-10-22T03:18:10.381Z,3.40
2022-10-22T03:20:37.049Z,3.80
2022-10-22T03:23:03.832Z,3.60
2022-10-22T03:29:14.602Z,3.63
2022-10-22T03:31:41.298Z,3.50
2022-10-22T03:34:08.932Z,4.20
2022-10-22T03:36:35.596Z,8.13
2022-10-22T03:39:02.775Z,4.33
2022-10-22T03:41:29.553Z,4.13
2022-10-22T03:43:57.471Z,3.40
2022-10-22T03:46:24.265Z,4.10
2022-10-22T03:48:50.935Z,3.50
2022-10-22T03:51:17.617Z,3.90
2022-10-22T03:53:44.401Z,3.90
2022-10-22T03:56:12.100Z,3.93
2022-10-22T03:58:40.996Z,4.23
2022-10-22T04:01:13.178Z,4.57
2022-10-22T04:03:40.321Z,3.77
2022-10-22T04:06:12.400Z,3.50
2022-10-22T04:08:41.503Z,3.23
2022-10-22T04:11:09.165Z,4.20
2022-10-22T04:13:35.846Z,3.30
2022-10-22T04:16:18.000Z,3.50
2022-10-22T04:18:45.832Z,8.80
2022-10-22T04:21:14.446Z,3.63
2022-10-22T04:23:49.284Z,3.93
2022-10-22T04:26:17.758Z,3.17
2022-10-22T04:28:46.057Z,3.60
2022-10-22T04:31:15.111Z,4.13
2022-10-22T04:33:42.157Z,3.80
2022-10-22T04:36:11.683Z,3.70
2022-10-22T04:38:39.314Z,3.60
2022-10-22T04:41:15.520Z,3.93
2022-10-22T04:43:43.099Z,3.90
2022-10-22T04:46:11.071Z,3.57
2022-10-22T04:48:39.802Z,3.80
2022-10-22T04:51:09.011Z,3.40
2022-10-22T04:53:36.260Z,4.33
2022-10-22T04:56:09.270Z,3.73
2022-10-22T04:58:35.978Z,3.93
2022-10-22T05:01:13.802Z,3.63
2022-10-22T05:03:40.992Z,3.50
2022-10-22T05:06:08.985Z,4.03
2022-10-22T05:08:36.389Z,4.40
2022-10-22T05:11:11.628Z,3.77
2022-10-22T05:13:38.379Z,4.67
2022-10-22T05:16:05.437Z,4.30
2022-10-22T05:18:36.575Z,4.80
2022-10-22T05:21:04.624Z,4.80
2022-10-22T05:23:31.645Z,4.80
2022-10-22T05:26:02.717Z,4.50
2022-10-22T05:28:29.429Z,5.73
2022-10-22T05:30:58.754Z,4.97
2022-10-22T05:33:26.489Z,5.07
2022-10-22T05:35:53.631Z,4.63
2022-10-22T05:38:20.825Z,3.90
2022-10-22T05:40:47.496Z,5.10
2022-10-22T05:43:14.263Z,5.60
2022-10-22T05:45:42.357Z,5.13
2022-10-22T05:48:09.829Z,5.47
2022-10-22T05:50:37.836Z,5.60
2022-10-22T05:53:05.461Z,6.37
2022-10-22T05:55:37.055Z,5.73
2022-10-22T05:58:04.849Z,6.60
2022-10-22T06:00:31.585Z,110.23
2022-10-22T06:02:58.312Z,73.53
2022-10-22T06:05:24.989Z,66.90
2022-10-22T06:07:51.937Z,67.67
2022-10-22T06:10:20.897Z,60.20
2022-10-22T06:12:48.524Z,55.77
2022-10-22T06:15:17.297Z,59.70
2022-10-22T06:17:47.883Z,60.07
2022-10-22T06:20:15.340Z,58.97
2022-10-22T06:22:42.251Z,48.00
2022-10-22T06:25:09.580Z,59.83
2022-10-22T06:27:36.443Z,55.40
2022-10-22T06:30:03.574Z,36.93
2022-10-22T06:32:30.678Z,38.30
2022-10-22T06:34:57.339Z,30.70
2022-10-22T06:37:23.997Z,33.67
2022-10-22T06:39:50.657Z,34.60
2022-10-22T06:42:17.327Z,33.80
2022-10-22T06:44:43.983Z,27.17
2022-10-22T06:47:10.713Z,21.97
2022-10-22T06:49:37.455Z,17.20
2022-10-22T06:52:04.141Z,18.17
2022-10-22T06:54:30.817Z,16.77
2022-10-22T06:56:57.481Z,17.33
2022-10-22T06:59:24.151Z,19.27
2022-10-22T07:01:50.831Z,14.70
2022-10-22T07:04:17.587Z,18.57
2022-10-22T07:06:44.245Z,14.40
2022-10-22T07:09:11.092Z,14.50
2022-10-22T07:11:44.231Z,17.30
2022-10-22T07:14:11.708Z,13.17
2022-10-22T07:16:38.715Z,16.57
2022-10-22T07:19:05.759Z,16.07
2022-10-22T07:21:32.854Z,19.23
2022-10-22T07:23:59.801Z,14.30
2022-10-22T07:26:30.599Z,15.70
2022-10-22T07:28:57.363Z,13.90
2022-10-22T07:31:24.099Z,15.13
2022-10-22T07:33:50.801Z,11.53
2022-10-22T07:36:18.045Z,13.83
2022-10-22T07:38:52.932Z,10.97
2022-10-22T07:41:19.685Z,12.70
2022-10-22T07:43:46.603Z,11.10
2022-10-22T07:46:13.616Z,11.97
2022-10-22T07:48:40.386Z,11.60
2022-10-22T07:51:07.326Z,10.93
2022-10-22T07:53:34.251Z,9.40
2022-10-22T07:56:01.108Z,14.73
2022-10-22T07:58:27.853Z,11.97
2022-10-22T08:01:00.755Z,10.17
2022-10-22T08:03:28.596Z,10.40
2022-10-22T08:05:55.637Z,11.10
2022-10-22T08:08:24.890Z,10.50
2022-10-22T08:10:53.953Z,8.97
2022-10-22T08:13:20.749Z,8.60
2022-10-22T08:15:47.429Z,11.77
2022-10-22T08:18:15.989Z,9.53
2022-10-22T08:20:42.773Z,9.20
2022-10-22T08:23:09.923Z,8.60
2022-10-22T08:25:36.682Z,13.17
2022-10-22T08:28:03.517Z,15.73
2022-10-22T08:30:30.263Z,14.60
2022-10-22T08:32:57.122Z,12.60
2022-10-22T08:35:23.897Z,11.87
2022-10-22T08:37:50.719Z,14.13
2022-10-22T08:40:32.739Z,11.87
2022-10-22T08:43:24.122Z,9.83
2022-10-22T08:46:15.317Z,9.90
2022-10-22T08:48:48.286Z,10.37
2022-10-22T08:51:27.402Z,11.23
2022-10-22T08:54:12.901Z,8.17
2022-10-22T08:56:44.053Z,10.70
2022-10-22T08:59:19.922Z,12.03
2022-10-22T09:01:49.060Z,9.50
2022-10-22T09:04:28.716Z,9.73
2022-10-22T09:06:58.746Z,10.10
2022-10-22T09:09:31.663Z,13.23
2022-10-22T09:12:00.696Z,9.17
2022-10-22T09:14:29.857Z,7.43
2022-10-22T09:17:12.066Z,8.13
2022-10-22T09:19:47.385Z,8.37
2022-10-22T09:22:52.679Z,7.40
2022-10-22T09:25:27.437Z,7.30
2022-10-22T09:27:58.364Z,7.17
2022-10-22T09:30:28.569Z,9.60
2022-10-22T09:33:01.768Z,7.30
2022-10-22T09:35:32.994Z,8.13
2022-10-22T09:38:07.488Z,8.37
2022-10-22T09:40:43.721Z,7.70
2022-10-22T09:43:13.861Z,7.20
2022-10-22T09:45:41.130Z,7.97
2022-10-22T09:48:30.881Z,6.73
2022-10-22T09:51:13.267Z,6.90
2022-10-22T09:53:45.479Z,6.60
2022-10-22T09:56:41.778Z,6.60
2022-10-22T09:59:16.190Z,7.53
2022-10-22T10:01:44.477Z,6.20
2022-10-22T10:04:16.674Z,6.40
2022-10-22T10:06:44.705Z,8.83
2022-10-22T10:09:24.207Z,6.37
2022-10-22T10:12:08.308Z,10.97
2022-10-22T10:14:47.878Z,7.00
2022-10-22T10:17:24.087Z,6.33
2022-10-22T10:20:15.063Z,9.07
2022-10-22T10:22:42.447Z,6.67
2022-10-22T10:25:43.283Z,9.80
2022-10-22T10:28:09.913Z,6.83
2022-10-22T10:30:55.596Z,6.33
2022-10-22T10:33:51.685Z,7.27
2022-10-22T10:36:30.640Z,6.50
2022-10-22T10:39:08.862Z,6.27
2022-10-22T10:41:35.476Z,6.73
2022-10-22T10:44:47.447Z,6.60
2022-10-22T10:47:24.943Z,6.30
2022-10-22T10:49:59.905Z,7.10
2022-10-22T10:52:36.693Z,6.80
2022-10-22T10:55:21.961Z,6.50
2022-10-22T10:58:06.076Z,5.40
2022-10-22T11:00:38.497Z,6.67
2022-10-22T11:03:23.654Z,6.00
2022-10-22T11:05:57.902Z,6.47
2022-10-22T11:08:30.278Z,7.03
2022-10-22T11:10:59.777Z,5.70
2022-10-22T11:13:32.027Z,5.80
2022-10-22T11:16:09.799Z,5.60
2022-10-22T11:18:45.551Z,6.37
2022-10-22T11:21:30.543Z,6.03
2022-10-22T11:24:12.319Z,5.93
2022-10-22T11:26:44.536Z,5.70
2022-10-22T11:29:17.536Z,5.90
2022-10-22T11:31:45.135Z,6.37
2022-10-22T11:34:44.642Z,5.00
2022-10-22T11:37:13.579Z,5.63
2022-10-22T11:39:43.012Z,6.67
2022-10-22T11:42:17.749Z,4.93
2022-10-22T11:45:28.714Z,5.70
2022-10-22T11:48:09.908Z,5.17
2022-10-22T11:50:47.900Z,6.50
2022-10-22T11:53:14.574Z,5.07
2022-10-22T11:55:45.577Z,4.97
2022-10-22T11:58:29.513Z,5.10
2022-10-22T12:01:21.940Z,6.80
2022-10-22T12:03:53.115Z,5.40
2022-10-22T12:06:22.945Z,4.60
2022-10-22T12:08:49.687Z,4.73
2022-10-22T12:11:35.082Z,5.30
2022-10-22T12:14:29.158Z,4.60
2022-10-22T12:17:13.825Z,5.70
2022-10-22T12:19:46.279Z,4.73
2022-10-22T12:22:18.578Z,4.30
2022-10-22T12:24:49.312Z,4.53
2022-10-22T12:27:28.247Z,4.70
2022-10-22T12:29:57.545Z,4.30
2022-10-22T12:32:37.354Z,5.13
2022-10-22T12:35:19.475Z,5.67
2022-10-22T12:37:50.882Z,4.70
2022-10-22T12:40:22.165Z,4.30
2022-10-22T12:42:58.078Z,4.60
2022-10-22T12:45:33.049Z,5.20
2022-10-22T12:48:03.229Z,5.57
2022-10-22T12:50:38.181Z,6.27
2022-10-22T12:53:43.229Z,5.30
2022-10-22T12:56:28.317Z,4.97
2022-10-22T12:58:59.463Z,4.60
2022-10-22T13:01:28.978Z,4.90
2022-10-22T13:04:12.792Z,5.60
2022-10-22T13:06:45.037Z,4.57
2022-10-22T13:09:26.805Z,8.40
2022-10-22T13:12:01.689Z,4.90
2022-10-22T13:14:29.627Z,5.20
2022-10-22T13:17:09.703Z,4.87
2022-10-22T13:19:45.510Z,4.53
2022-10-22T13:22:31.022Z,4.60
2022-10-22T13:25:03.837Z,4.33
2022-10-22T13:27:31.856Z,4.50
2022-10-22T13:30:02.869Z,4.13
2022-10-22T13:32:32.919Z,4.83
2022-10-22T13:35:02.256Z,4.53
2022-10-22T13:37:31.368Z,4.60
2022-10-22T13:39:58.382Z,5.00
2022-10-22T13:42:25.327Z,3.80
2022-10-22T13:44:51.984Z,4.03
2022-10-22T13:47:27.466Z,4.30
2022-10-22T13:49:58.620Z,4.77
2022-10-22T13:52:36.307Z,4.03
2022-10-22T13:55:12.943Z,4.10
2022-10-22T13:57:39.845Z,3.97
2022-10-22T14:00:07.353Z,4.53
2022-10-22T14:02:34.053Z,5.10
2022-10-22T14:05:03.327Z,4.20
2022-10-22T14:07:30.173Z,4.40
2022-10-22T14:09:56.881Z,4.50
2022-10-22T14:12:25.085Z,5.63
2022-10-22T14:14:51.825Z,4.40
2022-10-22T14:17:19.140Z,8.30
2022-10-22T14:19:49.176Z,4.30
2022-10-22T14:22:18.873Z,4.10
2022-10-22T14:24:46.658Z,4.70
2022-10-22T14:27:15.164Z,4.40
2022-10-22T14:29:41.972Z,4.20
2022-10-22T14:32:21.727Z,3.90
2022-10-22T14:34:48.480Z,4.53
2022-10-22T14:37:18.404Z,4.83
2022-10-22T14:39:51.668Z,4.50
2022-10-22T14:42:19.900Z,5.27
2022-10-22T14:44:46.908Z,6.13
2022-10-22T14:47:13.634Z,4.13
2022-10-22T14:49:40.327Z,5.07
2022-10-22T14:52:09.544Z,3.90
2022-10-22T14:58:15.961Z,4.60
2022-10-22T15:00:43.487Z,3.93
2022-10-22T15:03:11.491Z,4.50
2022-10-22T15:05:44.982Z,4.60
2022-10-22T15:08:13.124Z,4.77
2022-10-22T15:10:40.722Z,3.83
2022-10-22T15:13:07.492Z,4.23
2022-10-22T15:15:39.256Z,4.30
2022-10-22T15:18:06.827Z,3.67
2022-10-22T15:20:33.563Z,4.07
2022-10-22T15:23:00.485Z,4.33
2022-10-22T15:25:27.416Z,7.13
2022-10-22T15:27:57.576Z,4.30
2022-10-22T15:30:28.697Z,4.37
2022-10-22T15:32:55.436Z,4.47
2022-10-22T15:35:22.146Z,4.30
2022-10-22T15:37:51.461Z,4.27
2022-10-22T15:40:18.123Z,4.37
2022-10-22T15:42:46.572Z,4.17
2022-10-22T15:45:13.343Z,7.90
2022-10-22T15:47:40.309Z,3.83
2022-10-22T15:50:07.828Z,3.47
2022-10-22T15:52:34.517Z,5.10
2022-10-22T15:55:04.156Z,4.83
2022-10-22T15:57:30.899Z,5.27
2022-10-22T15:59:57.640Z,3.60
2022-10-22T16:02:24.772Z,4.53
2022-10-22T16:04:51.428Z,4.80
2022-10-22T16:07:21.034Z,4.20
2022-10-22T16:09:50.702Z,5.57
2022-10-22T16:12:17.450Z,4.67
2022-10-22T16:14:44.129Z,5.03
2022-10-22T16:17:10.990Z,4.50
2022-10-22T16:19:38.051Z,4.97
2022-10-22T16:22:04.755Z,4.87
2022-10-22T16:24:31.449Z,5.00
2022-10-22T16:26:58.420Z,5.27
2022-10-22T16:29:25.080Z,6.07
2022-10-22T16:31:51.810Z,4.57
2022-10-22T16:34:18.507Z,4.87
2022-10-22T16:36:45.305Z,5.70
2022-10-22T16:39:12.070Z,5.10
2022-10-22T16:41:39.058Z,4.83
2022-10-22T16:44:08.670Z,5.23
2022-10-22T16:46:38.595Z,5.23
2022-10-22T16:49:06.537Z,4.40
2022-10-22T16:51:33.778Z,4.70
2022-10-22T16:54:00.502Z,4.77
2022-10-22T16:56:27.331Z,4.50
2022-10-22T16:58:56.426Z,6.83
2022-10-22T17:01:26.444Z,5.73
2022-10-22T17:03:54.797Z,5.00
2022-10-22T17:06:23.734Z,4.30
2022-10-22T17:08:50.625Z,6.00
2022-10-22T17:11:20.598Z,4.27
2022-10-22T17:13:49.254Z,3.93
2022-10-22T17:16:17.694Z,4.40
2022-10-22T17:21:18.842Z,4.20
2022-10-22T17:23:45.840Z,4.30
2022-10-22T17:26:19.752Z,4.50
2022-10-22T17:28:46.920Z,3.83
2022-10-22T17:31:20.471Z,4.70
2022-10-22T17:33:48.604Z,3.97
2022-10-22T17:36:17.223Z,3.90
2022-10-22T17:38:48.008Z,3.97
2022-10-22T17:41:36.014Z,4.30
2022-10-22T17:44:04.885Z,3.83
2022-10-22T17:46:32.735Z,3.33
2022-10-22T17:49:05.437Z,2.87
2022-10-22T17:51:32.242Z,2.30
2022-10-22T17:53:59.116Z,2.33
2022-10-22T17:56:28.576Z,4.00
2022-10-22T17:58:56.002Z,2.03
2022-10-22T18:01:28.533Z,2.30
2022-10-22T18:03:59.288Z,1.87
2022-10-22T18:06:26.061Z,1.43
2022-10-22T18:11:23.468Z,1.30
2022-10-22T18:13:51.344Z,1.40
2022-10-22T18:16:18.826Z,1.27
2022-10-22T18:18:47.580Z,1.33
2022-10-22T18:21:15.625Z,1.20
2022-10-22T18:23:42.576Z,1.50
2022-10-22T18:26:09.536Z,1.60
2022-10-22T18:28:46.299Z,0.77
2022-10-22T18:31:17.552Z,1.10
2022-10-22T18:33:44.821Z,1.10
2022-10-22T18:36:14.569Z,1.20
2022-10-22T18:38:41.386Z,1.17
2022-10-22T18:41:09.914Z,1.00
2022-10-22T18:43:36.914Z,1.10
2022-10-22T18:46:06.992Z,1.17
2022-10-22T18:48:35.539Z,1.03
2022-10-22T18:51:05.124Z,1.10
2022-10-22T18:53:32.156Z,1.40
2022-10-22T18:55:59.009Z,1.57
2022-10-22T18:58:25.700Z,1.53
2022-10-22T19:00:52.583Z,1.20
2022-10-22T19:03:19.560Z,1.30
2022-10-22T19:05:49.056Z,1.10
2022-10-22T19:08:18.588Z,7.23
2022-10-22T19:10:46.817Z,2.60
2022-10-22T19:13:15.241Z,1.67
2022-10-22T19:15:41.937Z,2.60
2022-10-22T19:18:09.004Z,0.80
2022-10-22T19:20:36.359Z,1.00
2022-10-22T19:23:04.091Z,2.87
2022-10-22T19:25:31.025Z,1.10
2022-10-22T19:27:57.765Z,0.73
2022-10-22T19:30:24.541Z,0.83
2022-10-22T19:32:51.315Z,1.10
2022-10-22T19:35:18.221Z,0.77
2022-10-22T19:37:48.248Z,0.90
2022-10-22T19:40:15.651Z,1.13
2022-10-22T19:42:44.375Z,1.20
2022-10-22T19:45:11.544Z,1.97
2022-10-22T19:47:38.240Z,1.57
2022-10-22T19:50:05.544Z,0.80
2022-10-22T19:52:33.204Z,0.93
2022-10-22T19:54:59.943Z,1.17
2022-10-22T19:57:26.598Z,1.20
2022-10-22T19:59:53.477Z,0.67
2022-10-22T20:02:20.837Z,1.00
2022-10-22T20:04:49.911Z,1.10
2022-10-22T20:07:17.200Z,1.53
2022-10-22T20:09:43.962Z,1.07
2022-10-22T20:12:10.634Z,1.03
2022-10-22T20:14:37.549Z,0.93
2022-10-22T20:17:04.364Z,0.60
2022-10-22T20:19:31.208Z,0.73
2022-10-22T20:24:29.504Z,1.17
2022-10-22T20:26:56.208Z,0.60
2022-10-22T20:29:22.855Z,0.83
2022-10-22T20:31:49.686Z,1.17
2022-10-22T20:34:16.637Z,0.80
2022-10-22T20:36:43.508Z,0.50
2022-10-22T20:39:14.307Z,0.83
2022-10-22T20:41:41.505Z,0.70
2022-10-22T20:44:15.361Z,0.90
2022-10-22T20:46:42.496Z,0.90
2022-10-22T20:49:13.845Z,1.37
2022-10-22T20:51:40.687Z,0.77
2022-10-22T20:54:08.515Z,2.23
2022-10-22T20:56:37.632Z,1.13
2022-10-22T20:59:05.406Z,0.83
2022-10-22T21:01:49.855Z,0.87
2022-10-22T21:04:18.074Z,0.77
2022-10-22T21:06:44.777Z,0.93
2022-10-22T21:09:14.071Z,0.80
2022-10-22T21:11:42.375Z,0.80
2022-10-22T21:14:10.489Z,0.70
2022-10-22T21:16:41.670Z,0.90
2022-10-22T21:19:08.367Z,0.87
2022-10-22T21:21:35.060Z,0.90
2022-10-22T21:24:01.785Z,0.70
2022-10-22T21:26:28.459Z,0.83
2022-10-22T21:28:55.257Z,0.73
2022-10-22T21:31:24.101Z,0.80
2022-10-22T21:33:50.932Z,0.90
2022-10-22T21:36:22.467Z,0.57
2022-10-22T21:38:51.758Z,1.73
2022-10-22T21:41:21.048Z,0.70
2022-10-22T21:43:48.346Z,0.70
2022-10-22T21:46:17.459Z,1.27
2022-10-22T21:48:44.481Z,0.90
2022-10-22T21:51:14.212Z,0.93
2022-10-22T21:53:41.361Z,1.80
2022-10-22T21:56:12.760Z,0.70
2022-10-22T21:58:39.466Z,0.80
2022-10-22T22:01:06.271Z,0.77
2022-10-22T22:03:33.073Z,0.97
2022-10-22T22:06:01.310Z,0.90
2022-10-22T22:08:28.508Z,0.60
2022-10-22T22:11:06.636Z,0.70
2022-10-22T22:13:33.820Z,0.80
2022-10-22T22:16:06.114Z,0.57
2022-10-22T22:18:33.635Z,1.70
2022-10-22T22:21:03.425Z,2.00
2022-10-22T22:23:30.199Z,0.80
2022-10-22T22:26:01.545Z,0.70
2022-10-22T22:28:32.216Z,0.70
2022-10-22T22:30:59.238Z,0.67
2022-10-22T22:33:26.833Z,0.80
2022-10-22T22:35:57.734Z,1.30
2022-10-22T22:38:24.391Z,0.57
2022-10-22T22:40:51.126Z,0.67
2022-10-22T22:43:17.800Z,0.93
2022-10-22T22:45:44.454Z,0.80
2022-10-22T22:48:11.244Z,0.80
2022-10-22T22:50:37.902Z,0.77
2022-10-22T22:53:04.549Z,0.67
2022-10-22T22:55:32.015Z,0.70
2022-10-22T22:57:59.021Z,0.60
2022-10-22T23:00:25.900Z,0.80
2022-10-22T23:02:56.066Z,2.70
2022-10-22T23:05:22.877Z,2.90
2022-10-22T23:07:49.611Z,0.57
2022-10-22T23:10:16.407Z,0.60
2022-10-22T23:12:43.287Z,0.60
2022-10-22T23:15:10.696Z,0.60
2022-10-22T23:17:37.449Z,1.00
2022-10-22T23:20:04.960Z,1.60
2022-10-22T23:22:31.630Z,0.67
2022-10-22T23:24:58.487Z,2.60
2022-10-22T23:27:25.188Z,1.33
2022-10-22T23:29:51.853Z,0.83
2022-10-22T23:32:18.553Z,0.90
2022-10-22T23:34:45.217Z,0.70
2022-10-22T23:37:12.381Z,0.70
2022-10-22T23:39:39.342Z,0.80
2022-10-22T23:42:06.082Z,1.30
2022-10-22T23:44:33.004Z,1.03
2022-10-22T23:46:59.689Z,0.60
2022-10-22T23:49:26.380Z,0.50
2022-10-22T23:51:53.233Z,0.83
2022-10-22T23:54:19.916Z,0.60
2022-10-22T23:56:46.761Z,0.63
